Mc Knightstown, Pennsylvania
Current Conditions -  °F | °C
As of 11:22 PM on Sunday 25 Jan 2015 (Local Time) from KRYT Reporting Station
Light Snow Light Snow  
Wind Chill: -1°   Ceiling: 400
Heat Index:   Visibility: 2mi
Dew Point: -1°   Wind: 5mph
Humidity: 87%   Direction: 70°ENE
Pressure: 29.84"   Gusts: NA
Location:  39.8752°N, 77.3219°W
Report Text: KRYT 260422Z AUTO 07004KT 2SM -SN BR OVC004 01/M01 A2984 RMK AO2 P0001 $
Loading
Personal Weather Stations






























Interactive Weather Map New forecast layout! Learn more

10-Day Weather Forecast

Advertisements
Track Severe Weather on mobile